createdAt,value
2019-01-23T00:00:06.649Z,37.40
2019-01-23T00:01:11.866Z,35.63
2019-01-23T00:02:15.332Z,36.80
2019-01-23T00:03:18.768Z,34.00
2019-01-23T00:04:22.278Z,34.63
2019-01-23T00:05:25.851Z,34.75
2019-01-23T00:06:29.356Z,36.38
2019-01-23T00:07:32.826Z,37.30
2019-01-23T00:08:36.340Z,34.88
2019-01-23T00:09:39.831Z,37.40
2019-01-23T00:10:43.281Z,36.35
2019-01-23T00:11:46.792Z,37.63
2019-01-23T00:12:50.295Z,36.73
2019-01-23T00:13:53.719Z,36.23
2019-01-23T00:14:57.167Z,37.90
2019-01-23T00:16:00.689Z,35.95
2019-01-23T00:17:04.285Z,36.90
2019-01-23T00:18:07.866Z,38.33
2019-01-23T00:19:11.303Z,36.05
2019-01-23T00:20:14.918Z,37.15
2019-01-23T00:21:18.329Z,37.95
2019-01-23T00:22:21.801Z,39.55
2019-01-23T00:23:25.253Z,36.63
2019-01-23T00:24:28.786Z,38.25
2019-01-23T00:25:32.313Z,38.48
2019-01-23T00:26:35.755Z,35.45
2019-01-23T00:27:39.266Z,35.60
2019-01-23T00:28:42.821Z,38.30
2019-01-23T00:29:46.218Z,38.85
2019-01-23T00:30:49.668Z,34.60
2019-01-23T00:31:53.185Z,36.25
2019-01-23T00:32:56.638Z,35.80
2019-01-23T00:34:00.073Z,35.20
2019-01-23T00:35:03.592Z,36.40
2019-01-23T00:36:07.108Z,37.90
2019-01-23T00:37:10.613Z,35.35
2019-01-23T00:38:14.092Z,38.42
2019-01-23T00:39:17.533Z,34.73
2019-01-23T00:40:20.960Z,34.60
2019-01-23T00:41:24.472Z,35.90
2019-01-23T00:42:27.909Z,36.73
2019-01-23T00:43:31.435Z,36.10
2019-01-23T00:44:34.880Z,37.38
2019-01-23T00:45:38.317Z,37.80
2019-01-23T00:46:41.747Z,35.85
2019-01-23T00:47:45.376Z,37.90
2019-01-23T00:48:48.906Z,35.90
2019-01-23T00:49:52.343Z,35.90
2019-01-23T00:50:55.777Z,36.17
2019-01-23T00:51:59.345Z,32.55
2019-01-23T00:53:02.778Z,33.65
2019-01-23T00:54:06.371Z,37.33
2019-01-23T00:55:12.645Z,35.95
2019-01-23T00:56:16.141Z,34.85
2019-01-23T00:57:19.656Z,35.03
2019-01-23T00:58:23.094Z,34.30
2019-01-23T00:59:26.554Z,36.53
2019-01-23T01:00:30.062Z,35.68
2019-01-23T01:01:33.506Z,36.55
2019-01-23T01:02:37.014Z,35.85
2019-01-23T01:03:40.515Z,36.53
2019-01-23T01:04:43.979Z,38.35
2019-01-23T01:05:47.571Z,38.90
2019-01-23T01:06:51.133Z,36.35
2019-01-23T01:07:54.716Z,37.95
2019-01-23T01:08:58.226Z,39.45
2019-01-23T01:10:01.681Z,36.77
2019-01-23T01:11:05.368Z,35.88
2019-01-23T01:12:08.884Z,33.98
2019-01-23T01:13:12.317Z,35.55
2019-01-23T01:14:15.848Z,36.40
2019-01-23T01:15:19.439Z,34.55
2019-01-23T01:16:23.092Z,34.50
2019-01-23T01:17:26.541Z,34.48
2019-01-23T01:18:29.994Z,38.38
2019-01-23T01:19:33.457Z,35.10
2019-01-23T01:20:36.973Z,34.00
2019-01-23T01:21:40.550Z,37.20
2019-01-23T01:22:44.139Z,35.55
2019-01-23T01:23:47.561Z,34.48
2019-01-23T01:24:51.017Z,36.38
2019-01-23T01:25:54.460Z,36.25
2019-01-23T01:26:57.958Z,35.23
2019-01-23T01:28:01.460Z,36.45
2019-01-23T01:29:04.990Z,36.10
2019-01-23T01:30:14.426Z,36.95
2019-01-23T01:31:17.863Z,37.17
2019-01-23T01:32:21.379Z,34.80
2019-01-23T01:33:24.880Z,34.40
2019-01-23T01:34:28.354Z,34.85
2019-01-23T01:35:31.931Z,36.13
2019-01-23T01:36:35.384Z,35.95
2019-01-23T01:37:38.887Z,34.73
2019-01-23T01:38:42.564Z,34.27
2019-01-23T01:39:46.018Z,37.67
2019-01-23T01:40:49.458Z,37.05
2019-01-23T01:41:52.910Z,38.40
2019-01-23T01:42:56.421Z,36.93
2019-01-23T01:43:59.880Z,37.05
2019-01-23T01:45:04.271Z,37.63
2019-01-23T01:46:07.706Z,35.00
2019-01-23T01:47:11.195Z,36.63
2019-01-23T01:48:14.715Z,35.20
2019-01-23T01:49:18.253Z,34.53
2019-01-23T01:50:21.919Z,35.58
2019-01-23T01:51:25.423Z,37.75
2019-01-23T01:52:28.885Z,35.48
2019-01-23T01:53:32.329Z,37.20
2019-01-23T01:54:35.872Z,36.83
2019-01-23T01:55:39.408Z,34.60
2019-01-23T01:56:42.929Z,34.83
2019-01-23T01:57:46.513Z,35.25
2019-01-23T01:58:50.055Z,34.00
2019-01-23T01:59:53.493Z,36.35
2019-01-23T02:00:56.932Z,36.15
2019-01-23T02:02:00.369Z,36.33
2019-01-23T02:03:03.875Z,34.88
2019-01-23T02:04:07.409Z,36.00
2019-01-23T02:05:11.317Z,37.83
2019-01-23T02:06:14.758Z,35.98
2019-01-23T02:07:18.207Z,35.90
2019-01-23T02:08:21.709Z,36.48
2019-01-23T02:09:25.167Z,35.95
2019-01-23T02:10:28.698Z,35.50
2019-01-23T02:11:32.147Z,37.53
2019-01-23T02:12:35.655Z,39.25
2019-01-23T02:13:39.105Z,37.00
2019-01-23T02:14:42.563Z,35.50
2019-01-23T02:15:45.994Z,32.50
2019-01-23T02:16:49.441Z,35.30
2019-01-23T02:17:53.019Z,34.95
2019-01-23T02:18:56.529Z,33.60
2019-01-23T02:20:00.052Z,32.70
2019-01-23T02:21:03.588Z,33.58
2019-01-23T02:22:07.087Z,32.42
2019-01-23T02:23:11.019Z,33.53
2019-01-23T02:24:14.463Z,31.90
2019-01-23T02:25:18.333Z,34.48
2019-01-23T02:26:21.765Z,32.33
2019-01-23T02:27:25.207Z,34.15
2019-01-23T02:28:28.645Z,32.95
2019-01-23T02:29:32.081Z,32.40
2019-01-23T02:30:35.770Z,33.13
2019-01-23T02:31:39.219Z,33.10
2019-01-23T02:32:42.750Z,32.20
2019-01-23T02:33:46.188Z,34.73
2019-01-23T02:34:49.761Z,32.70
2019-01-23T02:35:53.290Z,34.18
2019-01-23T02:36:56.806Z,33.35
2019-01-23T02:38:00.361Z,34.38
2019-01-23T02:39:05.274Z,32.35
2019-01-23T02:40:11.854Z,32.05
2019-01-23T02:41:15.382Z,31.25
2019-01-23T02:42:18.827Z,34.05
2019-01-23T02:43:22.262Z,33.88
2019-01-23T02:44:25.706Z,34.65
2019-01-23T02:45:29.293Z,33.38
2019-01-23T02:46:32.732Z,33.50
2019-01-23T02:47:36.164Z,35.10
2019-01-23T02:48:39.605Z,35.33
2019-01-23T02:49:43.048Z,35.25
2019-01-23T02:50:46.510Z,33.48
2019-01-23T02:51:50.024Z,37.38
2019-01-23T02:52:53.600Z,32.80
2019-01-23T02:53:57.046Z,33.88
2019-01-23T02:55:00.582Z,33.23
2019-01-23T02:56:04.255Z,35.83
2019-01-23T02:57:07.690Z,33.10
2019-01-23T02:58:11.203Z,33.00
2019-01-23T02:59:17.513Z,34.30
2019-01-23T03:00:20.074Z,35.05
2019-01-23T03:01:23.510Z,36.45
2019-01-23T03:02:27.021Z,34.60
2019-01-23T03:03:30.533Z,35.35
2019-01-23T03:04:34.064Z,36.68
2019-01-23T03:05:37.644Z,33.90
2019-01-23T03:06:41.093Z,34.90
2019-01-23T03:07:44.780Z,35.35
2019-01-23T03:08:48.223Z,37.35
2019-01-23T03:09:51.757Z,35.35
2019-01-23T03:10:55.290Z,33.40
2019-01-23T03:11:58.744Z,33.90
2019-01-23T03:13:02.273Z,34.48
2019-01-23T03:14:05.772Z,34.05
2019-01-23T03:15:11.937Z,34.78
2019-01-23T03:16:15.396Z,33.92
2019-01-23T03:17:18.837Z,34.45
2019-01-23T03:18:22.270Z,32.60
2019-01-23T03:19:25.786Z,35.85
2019-01-23T03:20:29.319Z,35.88
2019-01-23T03:21:32.842Z,34.08
2019-01-23T03:22:36.283Z,32.63
2019-01-23T03:23:39.794Z,33.13
2019-01-23T03:24:43.304Z,32.65
2019-01-23T03:25:46.769Z,32.83
2019-01-23T03:26:50.283Z,30.27
2019-01-23T03:27:53.762Z,32.00
2019-01-23T03:28:57.253Z,32.53
2019-01-23T03:30:00.697Z,32.65
2019-01-23T03:31:04.249Z,33.80
2019-01-23T03:32:07.648Z,30.80
2019-01-23T03:33:11.085Z,33.65
2019-01-23T03:34:14.524Z,31.85
2019-01-23T03:35:18.026Z,33.05
2019-01-23T03:36:21.617Z,31.20
2019-01-23T03:37:25.047Z,32.67
2019-01-23T03:38:28.489Z,33.00
2019-01-23T03:39:31.927Z,31.70
2019-01-23T03:40:35.438Z,33.70
2019-01-23T03:41:38.895Z,32.50
2019-01-23T03:42:42.494Z,32.23
2019-01-23T03:43:46.006Z,33.80
2019-01-23T03:44:49.443Z,32.75
2019-01-23T03:45:52.878Z,31.70
2019-01-23T03:46:56.332Z,31.10
2019-01-23T03:47:59.768Z,33.70
2019-01-23T03:49:03.215Z,32.03
2019-01-23T03:50:10.090Z,36.10
2019-01-23T03:51:13.582Z,36.48
2019-01-23T03:52:17.038Z,35.52
2019-01-23T03:53:20.478Z,34.80
2019-01-23T03:54:23.929Z,34.83
2019-01-23T03:55:27.449Z,34.78
2019-01-23T03:56:30.947Z,35.52
2019-01-23T03:57:34.508Z,35.48
2019-01-23T03:58:38.066Z,36.15
2019-01-23T03:59:41.513Z,35.55
2019-01-23T04:00:45.093Z,34.30
2019-01-23T04:01:48.535Z,34.90
2019-01-23T04:02:53.336Z,35.25
2019-01-23T04:03:56.833Z,32.80
2019-01-23T04:05:00.270Z,30.85
2019-01-23T04:06:04.116Z,36.15
2019-01-23T04:07:07.559Z,33.48
2019-01-23T04:08:11.153Z,33.13
2019-01-23T04:09:14.583Z,33.33
2019-01-23T04:10:18.462Z,31.82
2019-01-23T04:11:21.971Z,33.92
2019-01-23T04:12:25.411Z,36.70
2019-01-23T04:13:28.875Z,35.80
2019-01-23T04:14:32.396Z,33.88
2019-01-23T04:15:35.838Z,34.53
2019-01-23T04:16:39.272Z,33.28
2019-01-23T04:17:42.863Z,35.73
2019-01-23T04:18:46.322Z,35.15
2019-01-23T04:19:49.761Z,36.30
2019-01-23T04:20:53.268Z,33.28
2019-01-23T04:21:56.780Z,34.67
2019-01-23T04:23:00.305Z,34.58
2019-01-23T04:24:03.839Z,34.92
2019-01-23T04:25:09.324Z,36.55
2019-01-23T04:26:12.901Z,36.00
2019-01-23T04:27:16.342Z,33.42
2019-01-23T04:28:19.797Z,35.70
2019-01-23T04:29:23.231Z,38.48
2019-01-23T04:30:26.675Z,35.17
2019-01-23T04:31:30.116Z,36.90
2019-01-23T04:32:33.581Z,34.03
2019-01-23T04:33:37.170Z,33.48
2019-01-23T04:34:40.626Z,35.65
2019-01-23T04:35:44.060Z,35.20
2019-01-23T04:36:47.568Z,36.55
2019-01-23T04:37:51.073Z,35.33
2019-01-23T04:38:54.537Z,35.85
2019-01-23T04:39:57.977Z,34.73
2019-01-23T04:41:01.411Z,33.80
2019-01-23T04:42:04.918Z,35.92
2019-01-23T04:43:08.363Z,35.08
2019-01-23T04:44:11.817Z,34.10
2019-01-23T04:45:16.795Z,33.45
2019-01-23T04:46:20.240Z,35.23
2019-01-23T04:47:23.678Z,36.45
2019-01-23T04:48:27.137Z,33.90
2019-01-23T04:49:30.579Z,34.38
2019-01-23T04:50:35.652Z,33.35
2019-01-23T04:51:40.808Z,33.92
2019-01-23T04:52:48.993Z,33.55
2019-01-23T04:53:52.461Z,34.08
2019-01-23T04:54:55.900Z,34.55
2019-01-23T04:55:59.409Z,33.80
2019-01-23T04:57:03.279Z,36.48
2019-01-23T04:58:06.724Z,33.50
2019-01-23T04:59:10.259Z,34.53
2019-01-23T05:00:16.094Z,32.90
2019-01-23T05:01:19.554Z,34.65
2019-01-23T05:02:23.137Z,35.25
2019-01-23T05:03:26.667Z,34.15
2019-01-23T05:04:30.209Z,34.85
2019-01-23T05:05:33.718Z,33.65
2019-01-23T05:06:37.154Z,36.30
2019-01-23T05:07:40.622Z,34.83
2019-01-23T05:08:44.078Z,34.98
2019-01-23T05:09:47.547Z,34.05
2019-01-23T05:10:51.013Z,34.00
2019-01-23T05:11:54.453Z,37.50
2019-01-23T05:12:57.887Z,31.77
2019-01-23T05:14:01.347Z,37.93
2019-01-23T05:15:07.036Z,36.80
2019-01-23T05:16:10.486Z,38.15
2019-01-23T05:17:14.033Z,36.55
2019-01-23T05:18:17.486Z,36.90
2019-01-23T05:19:20.943Z,35.50
2019-01-23T05:20:24.404Z,35.23
2019-01-23T05:21:27.835Z,35.68
2019-01-23T05:22:31.285Z,37.00
2019-01-23T05:23:34.728Z,33.35
2019-01-23T05:24:38.190Z,35.92
2019-01-23T05:25:41.633Z,36.70
2019-01-23T05:26:45.076Z,32.93
2019-01-23T05:27:48.522Z,38.20
2019-01-23T05:28:51.961Z,35.45
2019-01-23T05:29:55.512Z,36.60
2019-01-23T05:30:58.948Z,37.53
2019-01-23T05:32:02.830Z,35.15
2019-01-23T05:33:06.344Z,36.08
2019-01-23T05:34:09.792Z,35.75
2019-01-23T05:35:13.386Z,34.92
2019-01-23T05:36:16.828Z,37.53
2019-01-23T05:37:20.278Z,36.90
2019-01-23T05:38:23.787Z,36.53
2019-01-23T05:39:27.251Z,37.35
2019-01-23T05:40:30.726Z,37.00
2019-01-23T05:41:34.229Z,35.20
2019-01-23T05:42:37.799Z,37.85
2019-01-23T05:43:41.234Z,37.70
2019-01-23T05:44:44.764Z,37.98
2019-01-23T05:45:48.297Z,35.68
2019-01-23T05:46:51.740Z,34.73
2019-01-23T05:47:55.171Z,37.63
2019-01-23T05:48:58.624Z,36.42
2019-01-23T05:50:02.160Z,35.20
2019-01-23T05:51:05.680Z,36.40
2019-01-23T05:52:09.153Z,38.35
2019-01-23T05:53:12.665Z,36.20
2019-01-23T05:54:16.129Z,34.80
2019-01-23T05:55:19.582Z,34.23
2019-01-23T05:56:23.052Z,35.15
2019-01-23T05:57:26.496Z,37.80
2019-01-23T05:58:29.961Z,37.40
2019-01-23T05:59:33.404Z,36.20
2019-01-23T06:00:36.859Z,36.35
2019-01-23T06:01:40.381Z,37.85
2019-01-23T06:02:43.886Z,39.15
2019-01-23T06:03:47.423Z,37.75
2019-01-23T06:04:50.837Z,37.15
2019-01-23T06:05:54.429Z,36.98
2019-01-23T06:06:58.012Z,37.83
2019-01-23T06:08:01.461Z,36.28
2019-01-23T06:09:07.925Z,37.98
2019-01-23T06:10:12.145Z,39.18
2019-01-23T06:11:15.607Z,39.42
2019-01-23T06:12:19.118Z,35.95
2019-01-23T06:13:22.638Z,39.67
2019-01-23T06:14:26.090Z,40.38
2019-01-23T06:15:29.526Z,38.58
2019-01-23T06:16:32.999Z,37.13
2019-01-23T06:17:36.437Z,38.13
2019-01-23T06:18:39.948Z,39.73
2019-01-23T06:19:43.538Z,37.30
2019-01-23T06:20:47.050Z,37.38
2019-01-23T06:21:50.518Z,36.80
2019-01-23T06:22:53.991Z,36.13
2019-01-23T06:23:57.430Z,39.10
2019-01-23T06:25:00.871Z,38.10
2019-01-23T06:26:05.852Z,36.85
2019-01-23T06:27:09.401Z,36.90
2019-01-23T06:28:12.917Z,37.53
2019-01-23T06:29:16.355Z,38.58
2019-01-23T06:30:22.504Z,37.30
2019-01-23T06:31:25.982Z,36.88
2019-01-23T06:32:29.432Z,38.60
2019-01-23T06:33:32.948Z,37.35
2019-01-23T06:34:36.410Z,39.53
2019-01-23T06:35:39.991Z,40.05
2019-01-23T06:36:43.536Z,42.25
2019-01-23T06:37:47.092Z,40.75
2019-01-23T06:38:50.522Z,43.87
2019-01-23T06:39:53.958Z,40.60
2019-01-23T06:40:57.537Z,43.48
2019-01-23T06:42:00.999Z,42.23
2019-01-23T06:43:04.583Z,41.90
2019-01-23T06:44:08.092Z,45.28
2019-01-23T06:45:14.040Z,43.02
2019-01-23T06:46:17.480Z,43.02
2019-01-23T06:47:20.944Z,43.28
2019-01-23T06:48:24.607Z,44.85
2019-01-23T06:49:28.114Z,41.77
2019-01-23T06:50:31.576Z,44.42
2019-01-23T06:51:35.094Z,42.38
2019-01-23T06:52:38.710Z,42.35
2019-01-23T06:53:42.207Z,42.03
2019-01-23T06:54:45.797Z,42.93
2019-01-23T06:55:49.244Z,39.67
2019-01-23T06:56:52.688Z,41.48
2019-01-23T06:57:56.154Z,42.73
2019-01-23T06:58:59.596Z,44.67
2019-01-23T07:00:03.125Z,45.48
2019-01-23T07:01:06.546Z,46.15
2019-01-23T07:02:10.827Z,42.13
2019-01-23T07:03:14.419Z,44.30
2019-01-23T07:04:17.854Z,44.27
2019-01-23T07:05:21.490Z,44.85
2019-01-23T07:06:24.956Z,44.90
2019-01-23T07:07:28.393Z,42.70
2019-01-23T07:08:31.866Z,45.33
2019-01-23T07:09:35.390Z,44.15
2019-01-23T07:10:38.928Z,43.78
2019-01-23T07:11:42.350Z,42.90
2019-01-23T07:12:47.846Z,40.52
2019-01-23T07:13:51.316Z,44.38
2019-01-23T07:14:54.772Z,43.70
2019-01-23T07:15:58.213Z,42.90
2019-01-23T07:17:01.738Z,43.15
2019-01-23T07:18:05.576Z,41.42
2019-01-23T07:19:09.115Z,42.83
2019-01-23T07:20:21.040Z,41.90
2019-01-23T07:21:24.485Z,42.90
2019-01-23T07:22:27.926Z,38.60
2019-01-23T07:23:31.373Z,42.90
2019-01-23T07:24:34.921Z,39.95
2019-01-23T07:25:38.500Z,41.73
2019-01-23T07:26:42.121Z,42.85
2019-01-23T07:27:45.567Z,43.52
2019-01-23T07:28:49.465Z,40.58
2019-01-23T07:29:52.955Z,46.08
2019-01-23T07:30:56.518Z,45.50
2019-01-23T07:31:59.911Z,46.50
2019-01-23T07:33:03.489Z,46.20
2019-01-23T07:34:06.929Z,42.38
2019-01-23T07:35:10.521Z,41.02
2019-01-23T07:36:14.029Z,42.85
2019-01-23T07:37:17.469Z,45.00
2019-01-23T07:38:20.916Z,37.45
2019-01-23T07:39:24.425Z,43.38
2019-01-23T07:40:27.897Z,43.70
2019-01-23T07:41:31.330Z,44.30
2019-01-23T07:42:34.837Z,42.15
2019-01-23T07:43:38.347Z,42.95
2019-01-23T07:44:41.791Z,41.92
2019-01-23T07:45:45.324Z,43.95
2019-01-23T07:46:48.910Z,43.50
2019-01-23T07:47:52.359Z,42.58
2019-01-23T07:48:55.811Z,43.23
2019-01-23T07:49:59.283Z,44.77
2019-01-23T07:51:02.747Z,44.18
2019-01-23T07:52:06.341Z,43.90
2019-01-23T07:53:09.921Z,44.98
2019-01-23T07:54:13.357Z,41.05
2019-01-23T07:55:18.961Z,42.83
2019-01-23T07:56:22.401Z,42.58
2019-01-23T07:57:25.839Z,40.55
2019-01-23T07:58:29.350Z,43.33
2019-01-23T07:59:32.798Z,42.88
2019-01-23T08:00:36.319Z,41.98
2019-01-23T08:01:39.903Z,41.42
2019-01-23T08:02:43.354Z,41.10
2019-01-23T08:03:46.889Z,42.15
2019-01-23T08:04:50.332Z,42.17
2019-01-23T08:05:53.866Z,42.53
2019-01-23T08:06:57.310Z,44.20
2019-01-23T08:08:00.834Z,42.38
2019-01-23T08:09:07.282Z,46.10
2019-01-23T08:10:14.264Z,43.98
2019-01-23T08:11:17.884Z,45.00
2019-01-23T08:12:21.394Z,43.10
2019-01-23T08:13:24.929Z,43.75
2019-01-23T08:14:28.502Z,42.75
2019-01-23T08:15:34.009Z,45.30
2019-01-23T08:16:37.635Z,42.83
2019-01-23T08:17:41.051Z,43.60
2019-01-23T08:18:44.698Z,44.55
2019-01-23T08:19:48.137Z,43.87
2019-01-23T08:20:51.603Z,45.63
2019-01-23T08:21:55.036Z,41.92
2019-01-23T08:22:59.112Z,44.40
2019-01-23T08:24:02.620Z,43.10
2019-01-23T08:25:07.576Z,41.80
2019-01-23T08:26:11.234Z,42.13
2019-01-23T08:27:14.680Z,42.30
2019-01-23T08:28:18.184Z,44.80
2019-01-23T08:29:21.719Z,42.88
2019-01-23T08:30:25.618Z,41.25
2019-01-23T08:31:29.127Z,42.30
2019-01-23T08:32:32.710Z,43.15
2019-01-23T08:33:36.278Z,41.88
2019-01-23T08:34:39.719Z,42.03
2019-01-23T08:35:43.176Z,42.83
2019-01-23T08:36:46.616Z,46.10
2019-01-23T08:37:50.194Z,40.17
2019-01-23T08:38:53.708Z,41.50
2019-01-23T08:39:57.154Z,45.33
2019-01-23T08:41:00.685Z,43.28
2019-01-23T08:42:04.191Z,43.50
2019-01-23T08:43:07.785Z,43.45
2019-01-23T08:44:11.287Z,41.50
2019-01-23T08:45:15.396Z,43.10
2019-01-23T08:46:18.937Z,40.38
2019-01-23T08:47:22.376Z,42.60
2019-01-23T08:48:25.914Z,43.78
2019-01-23T08:49:29.353Z,42.13
2019-01-23T08:50:35.936Z,43.58
2019-01-23T08:51:39.375Z,44.70
2019-01-23T08:52:42.843Z,39.30
2019-01-23T08:53:46.279Z,39.90
2019-01-23T08:54:49.733Z,40.12
2019-01-23T08:55:53.823Z,37.42
2019-01-23T08:56:57.419Z,37.65
2019-01-23T08:58:00.943Z,40.00
2019-01-23T08:59:04.545Z,40.50
2019-01-23T09:00:11.411Z,39.75
2019-01-23T09:01:15.046Z,39.95
2019-01-23T09:02:18.514Z,41.25
2019-01-23T09:03:22.017Z,40.05
2019-01-23T09:04:25.529Z,41.90
2019-01-23T09:05:29.127Z,43.68
2019-01-23T09:06:32.602Z,43.52
2019-01-23T09:07:36.058Z,45.83
2019-01-23T09:08:39.592Z,42.78
2019-01-23T09:09:43.098Z,44.75
2019-01-23T09:10:46.675Z,40.52
2019-01-23T09:11:50.188Z,43.55
2019-01-23T09:12:53.769Z,41.48
2019-01-23T09:13:57.210Z,40.10
2019-01-23T09:15:00.677Z,42.10
2019-01-23T09:16:04.224Z,41.70
2019-01-23T09:17:07.754Z,43.78
2019-01-23T09:18:11.287Z,43.95
2019-01-23T09:19:14.858Z,42.78
2019-01-23T09:20:22.573Z,43.70
2019-01-23T09:21:26.017Z,43.35
2019-01-23T09:22:29.460Z,44.25
2019-01-23T09:23:32.969Z,41.70
2019-01-23T09:24:36.456Z,41.15
2019-01-23T09:25:40.018Z,42.50
2019-01-23T09:26:43.431Z,42.30
2019-01-23T09:27:46.946Z,45.33
2019-01-23T09:28:50.459Z,42.50
2019-01-23T09:29:53.899Z,42.00
2019-01-23T09:31:00.416Z,42.15
2019-01-23T09:32:09.893Z,40.05
2019-01-23T09:33:22.488Z,43.33
2019-01-23T09:34:34.467Z,42.93
2019-01-23T09:36:01.601Z,47.95
2019-01-23T09:37:16.841Z,41.55
2019-01-23T09:38:38.086Z,39.18
2019-01-23T09:39:44.576Z,39.80
2019-01-23T09:40:51.082Z,39.70
2019-01-23T09:42:06.080Z,42.17
2019-01-23T09:43:12.711Z,42.17
2019-01-23T09:44:40.881Z,44.60
2019-01-23T09:45:59.175Z,40.12
2019-01-23T09:47:20.444Z,39.00
2019-01-23T09:48:29.806Z,39.27
2019-01-23T09:49:57.026Z,39.53
2019-01-23T09:51:27.152Z,40.20
2019-01-23T09:52:42.377Z,39.20
2019-01-23T09:53:48.888Z,37.58
2019-01-23T09:54:52.351Z,37.10
2019-01-23T09:55:56.224Z,39.58
2019-01-23T09:56:59.734Z,36.73
2019-01-23T09:58:03.345Z,42.38
2019-01-23T09:59:06.779Z,37.75
2019-01-23T10:00:13.264Z,38.33
2019-01-23T10:01:16.866Z,38.42
2019-01-23T10:02:20.306Z,38.35
2019-01-23T10:03:23.848Z,40.05
2019-01-23T10:04:27.281Z,40.10
2019-01-23T10:05:30.729Z,41.42
2019-01-23T10:06:34.264Z,42.48
2019-01-23T10:07:37.961Z,41.35
2019-01-23T10:08:41.384Z,44.25
2019-01-23T10:09:44.900Z,42.50
2019-01-23T10:10:48.322Z,43.28
2019-01-23T10:11:51.763Z,43.13
2019-01-23T10:12:55.228Z,40.90
2019-01-23T10:13:58.738Z,41.48
2019-01-23T10:15:02.271Z,42.85
2019-01-23T10:16:06.006Z,38.92
2019-01-23T10:17:09.426Z,41.95
2019-01-23T10:18:13.020Z,43.02
2019-01-23T10:19:16.547Z,42.05
2019-01-23T10:20:20.061Z,42.15
2019-01-23T10:21:23.667Z,45.10
2019-01-23T10:22:27.129Z,39.78
2019-01-23T10:23:30.593Z,42.13
2019-01-23T10:24:35.975Z,41.83
2019-01-23T10:25:39.363Z,40.08
2019-01-23T10:26:42.898Z,42.48
2019-01-23T10:27:46.431Z,43.00
2019-01-23T10:28:49.867Z,42.45
2019-01-23T10:29:53.319Z,45.08
2019-01-23T10:30:56.850Z,41.45
2019-01-23T10:32:00.352Z,41.63
2019-01-23T10:33:03.853Z,39.73
2019-01-23T10:34:07.375Z,41.95
2019-01-23T10:35:14.143Z,40.28
2019-01-23T10:36:17.740Z,39.20
2019-01-23T10:37:21.198Z,40.40
2019-01-23T10:38:24.666Z,41.33
2019-01-23T10:39:28.188Z,36.65
2019-01-23T10:40:31.697Z,39.58
2019-01-23T10:41:35.193Z,41.88
2019-01-23T10:42:38.783Z,39.98
2019-01-23T10:43:42.294Z,39.10
2019-01-23T10:44:45.826Z,39.42
2019-01-23T10:45:49.364Z,38.83
2019-01-23T10:46:52.963Z,40.33
2019-01-23T10:47:56.479Z,42.85
2019-01-23T10:49:00.006Z,40.33
2019-01-23T10:50:04.620Z,39.33
2019-01-23T10:51:08.403Z,38.28
2019-01-23T10:52:11.858Z,40.45
2019-01-23T10:53:15.378Z,40.17
2019-01-23T10:54:18.822Z,39.42
2019-01-23T10:55:22.405Z,38.60
2019-01-23T10:56:26.088Z,39.23
2019-01-23T10:57:29.601Z,40.48
2019-01-23T10:58:33.111Z,37.75
2019-01-23T10:59:36.670Z,39.03
2019-01-23T11:00:40.726Z,37.83
2019-01-23T11:01:44.263Z,40.03
2019-01-23T11:02:47.714Z,38.50
2019-01-23T11:03:51.180Z,36.20
2019-01-23T11:04:54.768Z,36.90
2019-01-23T11:05:58.221Z,37.13
2019-01-23T11:07:01.684Z,38.45
2019-01-23T11:08:05.428Z,36.65
2019-01-23T11:09:09.106Z,37.13
2019-01-23T11:10:15.985Z,37.78
2019-01-23T11:11:19.415Z,41.20
2019-01-23T11:12:22.869Z,38.75
2019-01-23T11:13:26.454Z,38.02
2019-01-23T11:14:29.898Z,39.10
2019-01-23T11:15:33.345Z,37.50
2019-01-23T11:16:36.874Z,37.63
2019-01-23T11:17:40.508Z,36.30
2019-01-23T11:18:44.088Z,36.17
2019-01-23T11:19:47.591Z,37.60
2019-01-23T11:20:51.027Z,37.83
2019-01-23T11:21:54.483Z,37.38
2019-01-23T11:22:57.916Z,38.25
2019-01-23T11:24:01.501Z,37.70
2019-01-23T11:25:07.681Z,35.45
2019-01-23T11:26:11.185Z,37.25
2019-01-23T11:27:14.779Z,37.35
2019-01-23T11:28:18.323Z,37.53
2019-01-23T11:29:21.856Z,38.38
2019-01-23T11:30:27.005Z,34.73
2019-01-23T11:31:30.550Z,36.75
2019-01-23T11:32:34.009Z,34.35
2019-01-23T11:33:37.603Z,34.75
2019-01-23T11:34:41.064Z,37.15
2019-01-23T11:35:44.567Z,45.28
2019-01-23T11:36:48.124Z,43.95
2019-01-23T11:37:51.910Z,40.03
2019-01-23T11:38:55.499Z,38.25
2019-01-23T11:39:59.125Z,36.38
2019-01-23T11:41:02.702Z,37.20
2019-01-23T11:42:06.849Z,37.85
2019-01-23T11:43:10.432Z,34.30
2019-01-23T11:44:14.054Z,35.73
2019-01-23T11:45:17.576Z,35.85
2019-01-23T11:46:21.193Z,39.75
2019-01-23T11:47:24.789Z,38.50
2019-01-23T11:48:28.436Z,35.80
2019-01-23T11:49:31.936Z,35.10
2019-01-23T11:50:35.519Z,36.08
2019-01-23T11:51:39.120Z,35.83
2019-01-23T11:52:42.922Z,33.35
2019-01-23T11:53:46.504Z,33.23
2019-01-23T11:54:50.030Z,34.18
2019-01-23T11:55:53.527Z,32.08
2019-01-23T11:56:57.079Z,34.53
2019-01-23T11:58:00.591Z,33.15
2019-01-23T11:59:04.196Z,32.70
2019-01-23T12:00:13.784Z,35.95
2019-01-23T12:01:17.383Z,34.45
2019-01-23T12:02:21.204Z,35.25
2019-01-23T12:03:24.655Z,35.95
2019-01-23T12:04:28.112Z,37.03
2019-01-23T12:05:31.698Z,37.38
2019-01-23T12:06:35.389Z,36.25
2019-01-23T12:07:38.992Z,38.70
2019-01-23T12:08:42.442Z,37.03
2019-01-23T12:09:45.967Z,34.90
2019-01-23T12:10:49.520Z,37.28
2019-01-23T12:11:53.050Z,35.70
2019-01-23T12:12:56.500Z,36.28
2019-01-23T12:13:59.955Z,35.75
2019-01-23T12:15:03.845Z,34.15
2019-01-23T12:16:07.425Z,34.92
2019-01-23T12:17:10.995Z,35.08
2019-01-23T12:18:14.509Z,36.28
2019-01-23T12:19:18.096Z,37.45
2019-01-23T12:20:22.188Z,37.28
2019-01-23T12:21:25.803Z,41.83
2019-01-23T12:22:29.384Z,44.00
2019-01-23T12:23:32.909Z,39.75
2019-01-23T12:24:36.427Z,37.30
2019-01-23T12:25:39.936Z,34.05
2019-01-23T12:26:43.490Z,35.03
2019-01-23T12:27:47.074Z,33.13
2019-01-23T12:28:50.519Z,36.80
2019-01-23T12:29:53.970Z,33.50
2019-01-23T12:30:57.511Z,36.20
2019-01-23T12:32:01.014Z,35.43
2019-01-23T12:33:04.634Z,33.40
2019-01-23T12:34:08.144Z,35.55
2019-01-23T12:35:11.722Z,35.55
2019-01-23T12:36:15.256Z,33.88
2019-01-23T12:37:18.823Z,34.40
2019-01-23T12:38:22.405Z,35.33
2019-01-23T12:39:25.933Z,34.08
2019-01-23T12:40:29.457Z,32.53
2019-01-23T12:41:32.989Z,33.38
2019-01-23T12:42:36.547Z,35.73
2019-01-23T12:43:40.127Z,35.73
2019-01-23T12:44:43.787Z,32.85
2019-01-23T12:45:47.286Z,34.25
2019-01-23T12:46:50.756Z,31.75
2019-01-23T12:47:54.334Z,34.58
2019-01-23T12:48:57.772Z,32.40
2019-01-23T12:50:01.346Z,33.23
2019-01-23T12:51:05.063Z,32.95
2019-01-23T12:52:08.570Z,33.83
2019-01-23T12:53:13.163Z,34.13
2019-01-23T12:54:16.800Z,34.15
2019-01-23T12:55:20.364Z,35.55
2019-01-23T12:56:23.933Z,33.65
2019-01-23T12:57:27.801Z,33.85
2019-01-23T12:58:31.270Z,34.20
2019-01-23T12:59:34.776Z,34.55
2019-01-23T13:00:38.542Z,36.00
2019-01-23T13:01:42.459Z,35.90
2019-01-23T13:02:46.005Z,39.03
2019-01-23T13:03:49.503Z,35.25
2019-01-23T13:04:53.128Z,36.00
2019-01-23T13:05:56.759Z,34.03
2019-01-23T13:07:00.267Z,32.58
2019-01-23T13:08:03.793Z,36.30
2019-01-23T13:09:09.084Z,31.62
2019-01-23T13:10:17.783Z,32.38
2019-01-23T13:11:21.332Z,32.55
2019-01-23T13:12:24.900Z,32.70
2019-01-23T13:13:28.376Z,32.70
2019-01-23T13:14:31.899Z,34.73
2019-01-23T13:15:35.522Z,33.08
2019-01-23T13:16:38.984Z,31.48
2019-01-23T13:17:42.561Z,32.80
2019-01-23T13:18:46.018Z,31.97
2019-01-23T13:19:49.449Z,31.82
2019-01-23T13:20:53.068Z,31.70
2019-01-23T13:21:56.525Z,32.73
2019-01-23T13:23:00.029Z,34.60
2019-01-23T13:24:03.553Z,32.73
2019-01-23T13:25:10.308Z,34.10
2019-01-23T13:26:13.832Z,34.35
2019-01-23T13:27:17.426Z,32.48
2019-01-23T13:28:20.893Z,31.62
2019-01-23T13:29:24.349Z,33.08
2019-01-23T13:30:27.945Z,32.13
2019-01-23T13:31:31.426Z,31.90
2019-01-23T13:32:34.905Z,31.95
2019-01-23T13:33:38.489Z,31.30
2019-01-23T13:34:42.056Z,31.97
2019-01-23T13:35:45.565Z,33.05
2019-01-23T13:36:49.157Z,33.95
2019-01-23T13:37:52.746Z,32.40
2019-01-23T13:38:56.191Z,32.80
2019-01-23T13:39:59.635Z,32.85
2019-01-23T13:41:03.180Z,30.50
2019-01-23T13:42:06.756Z,29.87
2019-01-23T13:43:10.193Z,32.98